sensor_id;sensor_type;location;lat;lon;timestamp;P1;durP1;ratioP1;P2;durP2;ratioP2
19189;SDS011;9727;50.200;19.038;2022-07-29T00:01:39;10.80;;;4.93;;
19189;SDS011;9727;50.200;19.038;2022-07-29T00:04:06;8.60;;;4.63;;
19189;SDS011;9727;50.200;19.038;2022-07-29T00:06:33;10.90;;;4.83;;
19189;SDS011;9727;50.200;19.038;2022-07-29T00:09:02;13.07;;;4.73;;
19189;SDS011;9727;50.200;19.038;2022-07-29T00:11:29;11.10;;;4.40;;
19189;SDS011;9727;50.200;19.038;2022-07-29T00:13:55;9.67;;;4.27;;
19189;SDS011;9727;50.200;19.038;2022-07-29T00:16:23;9.70;;;4.50;;
19189;SDS011;9727;50.200;19.038;2022-07-29T00:18:50;8.77;;;4.50;;
19189;SDS011;9727;50.200;19.038;2022-07-29T00:21:17;8.93;;;4.20;;
19189;SDS011;9727;50.200;19.038;2022-07-29T00:23:44;9.27;;;4.60;;
19189;SDS011;9727;50.200;19.038;2022-07-29T00:26:10;6.97;;;4.17;;
19189;SDS011;9727;50.200;19.038;2022-07-29T00:28:37;8.43;;;4.10;;
19189;SDS011;9727;50.200;19.038;2022-07-29T00:31:05;12.33;;;4.53;;
19189;SDS011;9727;50.200;19.038;2022-07-29T00:33:34;10.23;;;4.60;;
19189;SDS011;9727;50.200;19.038;2022-07-29T00:36:01;9.17;;;4.50;;
19189;SDS011;9727;50.200;19.038;2022-07-29T00:38:26;8.73;;;4.37;;
19189;SDS011;9727;50.200;19.038;2022-07-29T00:40:53;8.07;;;3.83;;
19189;SDS011;9727;50.200;19.038;2022-07-29T00:43:20;9.27;;;4.50;;
19189;SDS011;9727;50.200;19.038;2022-07-29T00:45:47;8.03;;;4.60;;
19189;SDS011;9727;50.200;19.038;2022-07-29T00:48:14;7.53;;;4.13;;
19189;SDS011;9727;50.200;19.038;2022-07-29T00:50:42;6.30;;;3.90;;
19189;SDS011;9727;50.200;19.038;2022-07-29T00:53:09;9.27;;;4.17;;
19189;SDS011;9727;50.200;19.038;2022-07-29T00:55:37;12.37;;;4.20;;
19189;SDS011;9727;50.200;19.038;2022-07-29T00:58:07;9.50;;;4.57;;
19189;SDS011;9727;50.200;19.038;2022-07-29T01:00:37;6.97;;;4.10;;
19189;SDS011;9727;50.200;19.038;2022-07-29T01:03:05;9.27;;;4.00;;
19189;SDS011;9727;50.200;19.038;2022-07-29T01:05:32;7.80;;;3.73;;
19189;SDS011;9727;50.200;19.038;2022-07-29T01:08:00;10.37;;;4.77;;
19189;SDS011;9727;50.200;19.038;2022-07-29T01:10:28;10.93;;;4.40;;
19189;SDS011;9727;50.200;19.038;2022-07-29T01:12:56;10.47;;;4.57;;
19189;SDS011;9727;50.200;19.038;2022-07-29T01:15:23;6.67;;;3.90;;
19189;SDS011;9727;50.200;19.038;2022-07-29T01:17:53;7.10;;;3.97;;
19189;SDS011;9727;50.200;19.038;2022-07-29T01:20:25;6.50;;;4.00;;
19189;SDS011;9727;50.200;19.038;2022-07-29T01:25:52;8.20;;;3.87;;
19189;SDS011;9727;50.200;19.038;2022-07-29T01:31:10;5.23;;;3.03;;
19189;SDS011;9727;50.200;19.038;2022-07-29T01:33:55;6.53;;;3.03;;
19189;SDS011;9727;50.200;19.038;2022-07-29T01:36:26;5.60;;;2.93;;
19189;SDS011;9727;50.200;19.038;2022-07-29T01:38:54;6.03;;;3.27;;
19189;SDS011;9727;50.200;19.038;2022-07-29T01:41:22;6.10;;;3.10;;
19189;SDS011;9727;50.200;19.038;2022-07-29T01:43:49;6.00;;;2.70;;
19189;SDS011;9727;50.200;19.038;2022-07-29T01:46:20;5.30;;;3.03;;
19189;SDS011;9727;50.200;19.038;2022-07-29T01:48:48;4.60;;;3.00;;
19189;SDS011;9727;50.200;19.038;2022-07-29T01:51:16;4.73;;;2.80;;
19189;SDS011;9727;50.200;19.038;2022-07-29T01:53:54;5.03;;;2.63;;
19189;SDS011;9727;50.200;19.038;2022-07-29T01:56:22;6.47;;;2.80;;
19189;SDS011;9727;50.200;19.038;2022-07-29T01:58:49;6.10;;;2.67;;
19189;SDS011;9727;50.200;19.038;2022-07-29T02:01:20;5.37;;;2.50;;
19189;SDS011;9727;50.200;19.038;2022-07-29T02:03:49;6.60;;;2.63;;
19189;SDS011;9727;50.200;19.038;2022-07-29T02:06:17;6.17;;;2.47;;
19189;SDS011;9727;50.200;19.038;2022-07-29T02:08:45;6.00;;;2.53;;
19189;SDS011;9727;50.200;19.038;2022-07-29T02:11:12;6.20;;;2.30;;
19189;SDS011;9727;50.200;19.038;2022-07-29T02:13:39;4.40;;;2.50;;
19189;SDS011;9727;50.200;19.038;2022-07-29T02:16:07;3.77;;;2.33;;
19189;SDS011;9727;50.200;19.038;2022-07-29T02:18:39;7.27;;;2.40;;
19189;SDS011;9727;50.200;19.038;2022-07-29T02:21:07;5.13;;;2.40;;
19189;SDS011;9727;50.200;19.038;2022-07-29T02:23:34;5.47;;;2.60;;
19189;SDS011;9727;50.200;19.038;2022-07-29T02:26:02;6.37;;;2.53;;
19189;SDS011;9727;50.200;19.038;2022-07-29T02:28:31;8.23;;;2.50;;
19189;SDS011;9727;50.200;19.038;2022-07-29T02:31:01;5.13;;;2.33;;
19189;SDS011;9727;50.200;19.038;2022-07-29T02:33:28;4.60;;;2.33;;
19189;SDS011;9727;50.200;19.038;2022-07-29T02:35:57;3.13;;;2.23;;
19189;SDS011;9727;50.200;19.038;2022-07-29T02:38:25;3.30;;;2.17;;
19189;SDS011;9727;50.200;19.038;2022-07-29T02:41:11;3.90;;;2.23;;
19189;SDS011;9727;50.200;19.038;2022-07-29T02:43:53;5.87;;;2.20;;
19189;SDS011;9727;50.200;19.038;2022-07-29T02:46:20;3.40;;;2.10;;
19189;SDS011;9727;50.200;19.038;2022-07-29T02:48:55;2.97;;;2.00;;
19189;SDS011;9727;50.200;19.038;2022-07-29T02:51:25;7.00;;;2.03;;
19189;SDS011;9727;50.200;19.038;2022-07-29T02:53:54;3.43;;;1.83;;
19189;SDS011;9727;50.200;19.038;2022-07-29T02:56:25;4.80;;;2.17;;
19189;SDS011;9727;50.200;19.038;2022-07-29T02:58:53;2.63;;;1.70;;
19189;SDS011;9727;50.200;19.038;2022-07-29T03:01:32;5.73;;;2.53;;
19189;SDS011;9727;50.200;19.038;2022-07-29T03:04:00;3.50;;;1.90;;
19189;SDS011;9727;50.200;19.038;2022-07-29T03:06:29;3.83;;;1.90;;
19189;SDS011;9727;50.200;19.038;2022-07-29T03:08:57;4.53;;;1.90;;
19189;SDS011;9727;50.200;19.038;2022-07-29T03:11:35;3.40;;;1.67;;
19189;SDS011;9727;50.200;19.038;2022-07-29T03:14:03;4.27;;;2.20;;
19189;SDS011;9727;50.200;19.038;2022-07-29T03:16:31;3.70;;;1.90;;
19189;SDS011;9727;50.200;19.038;2022-07-29T03:19:01;3.40;;;1.70;;
19189;SDS011;9727;50.200;19.038;2022-07-29T03:21:33;3.70;;;1.90;;
19189;SDS011;9727;50.200;19.038;2022-07-29T03:23:59;4.93;;;2.07;;
19189;SDS011;9727;50.200;19.038;2022-07-29T03:26:26;4.40;;;2.20;;
19189;SDS011;9727;50.200;19.038;2022-07-29T03:28:54;3.37;;;1.93;;
19189;SDS011;9727;50.200;19.038;2022-07-29T03:31:22;5.50;;;2.20;;
19189;SDS011;9727;50.200;19.038;2022-07-29T03:33:49;3.60;;;1.80;;
19189;SDS011;9727;50.200;19.038;2022-07-29T03:36:16;4.10;;;1.97;;
19189;SDS011;9727;50.200;19.038;2022-07-29T03:38:44;7.73;;;2.17;;
19189;SDS011;9727;50.200;19.038;2022-07-29T03:41:12;4.20;;;1.93;;
19189;SDS011;9727;50.200;19.038;2022-07-29T03:43:39;3.57;;;1.80;;
19189;SDS011;9727;50.200;19.038;2022-07-29T03:46:07;4.33;;;1.80;;
19189;SDS011;9727;50.200;19.038;2022-07-29T03:48:36;3.63;;;1.70;;
19189;SDS011;9727;50.200;19.038;2022-07-29T03:51:03;5.47;;;2.07;;
19189;SDS011;9727;50.200;19.038;2022-07-29T03:53:45;3.87;;;2.20;;
19189;SDS011;9727;50.200;19.038;2022-07-29T03:56:12;4.23;;;2.00;;
19189;SDS011;9727;50.200;19.038;2022-07-29T03:58:51;4.87;;;2.00;;
19189;SDS011;9727;50.200;19.038;2022-07-29T04:01:18;4.73;;;1.70;;
19189;SDS011;9727;50.200;19.038;2022-07-29T04:03:45;3.67;;;1.80;;
19189;SDS011;9727;50.200;19.038;2022-07-29T04:06:12;3.60;;;1.87;;
19189;SDS011;9727;50.200;19.038;2022-07-29T04:08:39;6.53;;;2.10;;
19189;SDS011;9727;50.200;19.038;2022-07-29T04:11:07;5.20;;;1.83;;
19189;SDS011;9727;50.200;19.038;2022-07-29T04:13:35;3.73;;;1.93;;
19189;SDS011;9727;50.200;19.038;2022-07-29T04:16:01;4.50;;;1.83;;
19189;SDS011;9727;50.200;19.038;2022-07-29T04:18:28;2.43;;;1.63;;
19189;SDS011;9727;50.200;19.038;2022-07-29T04:20:55;3.80;;;1.87;;
19189;SDS011;9727;50.200;19.038;2022-07-29T04:23:24;4.93;;;2.10;;
19189;SDS011;9727;50.200;19.038;2022-07-29T04:25:51;4.33;;;2.10;;
19189;SDS011;9727;50.200;19.038;2022-07-29T04:28:19;5.07;;;1.97;;
19189;SDS011;9727;50.200;19.038;2022-07-29T04:30:52;6.53;;;2.17;;
19189;SDS011;9727;50.200;19.038;2022-07-29T04:33:19;8.97;;;2.07;;
19189;SDS011;9727;50.200;19.038;2022-07-29T04:35:47;4.10;;;2.00;;
19189;SDS011;9727;50.200;19.038;2022-07-29T04:38:14;3.13;;;1.97;;
19189;SDS011;9727;50.200;19.038;2022-07-29T04:40:41;3.77;;;1.77;;
19189;SDS011;9727;50.200;19.038;2022-07-29T04:43:14;3.50;;;2.37;;
19189;SDS011;9727;50.200;19.038;2022-07-29T04:45:43;4.27;;;1.93;;
19189;SDS011;9727;50.200;19.038;2022-07-29T04:48:10;2.40;;;1.73;;
19189;SDS011;9727;50.200;19.038;2022-07-29T04:50:37;5.53;;;2.20;;
19189;SDS011;9727;50.200;19.038;2022-07-29T04:53:05;3.60;;;2.10;;
19189;SDS011;9727;50.200;19.038;2022-07-29T04:55:31;4.33;;;2.03;;
19189;SDS011;9727;50.200;19.038;2022-07-29T04:57:58;4.10;;;1.70;;
19189;SDS011;9727;50.200;19.038;2022-07-29T05:00:25;5.73;;;2.27;;
19189;SDS011;9727;50.200;19.038;2022-07-29T05:02:53;4.33;;;2.10;;
19189;SDS011;9727;50.200;19.038;2022-07-29T05:05:20;4.50;;;2.37;;
19189;SDS011;9727;50.200;19.038;2022-07-29T05:07:47;3.93;;;2.00;;
19189;SDS011;9727;50.200;19.038;2022-07-29T05:10:14;5.87;;;2.07;;
19189;SDS011;9727;50.200;19.038;2022-07-29T05:12:42;8.83;;;2.40;;
19189;SDS011;9727;50.200;19.038;2022-07-29T05:15:14;5.43;;;2.00;;
19189;SDS011;9727;50.200;19.038;2022-07-29T05:17:41;4.00;;;1.90;;
19189;SDS011;9727;50.200;19.038;2022-07-29T05:20:12;5.87;;;1.97;;
19189;SDS011;9727;50.200;19.038;2022-07-29T05:22:39;5.27;;;2.27;;
19189;SDS011;9727;50.200;19.038;2022-07-29T05:25:07;4.67;;;1.90;;
19189;SDS011;9727;50.200;19.038;2022-07-29T05:27:45;2.70;;;1.90;;
19189;SDS011;9727;50.200;19.038;2022-07-29T05:30:12;2.83;;;1.93;;
19189;SDS011;9727;50.200;19.038;2022-07-29T05:32:39;4.17;;;1.90;;
19189;SDS011;9727;50.200;19.038;2022-07-29T05:35:06;4.43;;;2.03;;
19189;SDS011;9727;50.200;19.038;2022-07-29T05:37:36;4.70;;;2.10;;
19189;SDS011;9727;50.200;19.038;2022-07-29T05:40:03;3.27;;;2.10;;
19189;SDS011;9727;50.200;19.038;2022-07-29T05:42:30;3.30;;;2.10;;
19189;SDS011;9727;50.200;19.038;2022-07-29T05:44:57;5.73;;;2.17;;
19189;SDS011;9727;50.200;19.038;2022-07-29T05:47:24;3.83;;;2.00;;
19189;SDS011;9727;50.200;19.038;2022-07-29T05:49:51;4.55;;;2.45;;
19189;SDS011;9727;50.200;19.038;2022-07-29T05:52:17;3.55;;;2.28;;
19189;SDS011;9727;50.200;19.038;2022-07-29T05:54:47;3.47;;;2.10;;
19189;SDS011;9727;50.200;19.038;2022-07-29T05:57:16;6.20;;;2.60;;
19189;SDS011;9727;50.200;19.038;2022-07-29T05:59:43;3.22;;;2.25;;
19189;SDS011;9727;50.200;19.038;2022-07-29T06:02:10;4.78;;;2.30;;
19189;SDS011;9727;50.200;19.038;2022-07-29T06:04:37;3.47;;;2.33;;
19189;SDS011;9727;50.200;19.038;2022-07-29T06:07:15;4.75;;;2.30;;
19189;SDS011;9727;50.200;19.038;2022-07-29T06:09:42;5.72;;;2.63;;
19189;SDS011;9727;50.200;19.038;2022-07-29T06:12:11;5.13;;;2.50;;
19189;SDS011;9727;50.200;19.038;2022-07-29T06:14:38;4.50;;;2.38;;
19189;SDS011;9727;50.200;19.038;2022-07-29T06:17:05;3.92;;;2.40;;
19189;SDS011;9727;50.200;19.038;2022-07-29T06:19:44;6.07;;;2.50;;
19189;SDS011;9727;50.200;19.038;2022-07-29T06:22:14;5.50;;;2.78;;
19189;SDS011;9727;50.200;19.038;2022-07-29T06:24:42;8.35;;;3.20;;
19189;SDS011;9727;50.200;19.038;2022-07-29T06:27:13;4.05;;;2.67;;
19189;SDS011;9727;50.200;19.038;2022-07-29T06:29:43;6.43;;;2.53;;
19189;SDS011;9727;50.200;19.038;2022-07-29T06:32:24;4.28;;;2.40;;
19189;SDS011;9727;50.200;19.038;2022-07-29T06:34:51;7.63;;;2.67;;
19189;SDS011;9727;50.200;19.038;2022-07-29T06:37:18;5.70;;;2.85;;
19189;SDS011;9727;50.200;19.038;2022-07-29T06:39:47;4.80;;;2.58;;
19189;SDS011;9727;50.200;19.038;2022-07-29T06:42:36;4.07;;;2.47;;
19189;SDS011;9727;50.200;19.038;2022-07-29T06:45:03;5.05;;;2.83;;
19189;SDS011;9727;50.200;19.038;2022-07-29T06:47:30;6.55;;;2.55;;
19189;SDS011;9727;50.200;19.038;2022-07-29T06:49:57;5.90;;;3.20;;
19189;SDS011;9727;50.200;19.038;2022-07-29T06:52:25;6.55;;;3.00;;
19189;SDS011;9727;50.200;19.038;2022-07-29T06:54:54;9.50;;;3.10;;
19189;SDS011;9727;50.200;19.038;2022-07-29T06:57:21;7.60;;;2.67;;
19189;SDS011;9727;50.200;19.038;2022-07-29T06:59:51;4.28;;;2.55;;
19189;SDS011;9727;50.200;19.038;2022-07-29T07:02:18;9.20;;;2.78;;
19189;SDS011;9727;50.200;19.038;2022-07-29T07:04:45;4.00;;;2.80;;
19189;SDS011;9727;50.200;19.038;2022-07-29T07:07:12;6.82;;;2.97;;
19189;SDS011;9727;50.200;19.038;2022-07-29T07:09:39;8.65;;;3.20;;
19189;SDS011;9727;50.200;19.038;2022-07-29T07:12:06;7.18;;;2.85;;
19189;SDS011;9727;50.200;19.038;2022-07-29T07:14:32;4.35;;;2.70;;
19189;SDS011;9727;50.200;19.038;2022-07-29T07:17:11;4.45;;;3.30;;
19189;SDS011;9727;50.200;19.038;2022-07-29T07:19:38;3.63;;;2.78;;
19189;SDS011;9727;50.200;19.038;2022-07-29T07:22:05;5.53;;;2.92;;
19189;SDS011;9727;50.200;19.038;2022-07-29T07:24:32;5.50;;;2.97;;
19189;SDS011;9727;50.200;19.038;2022-07-29T07:26:59;5.95;;;2.70;;
19189;SDS011;9727;50.200;19.038;2022-07-29T07:29:25;4.60;;;2.72;;
19189;SDS011;9727;50.200;19.038;2022-07-29T07:31:52;10.88;;;3.00;;
19189;SDS011;9727;50.200;19.038;2022-07-29T07:34:20;10.43;;;3.10;;
19189;SDS011;9727;50.200;19.038;2022-07-29T07:36:47;10.55;;;2.92;;
19189;SDS011;9727;50.200;19.038;2022-07-29T07:39:24;4.47;;;2.78;;
19189;SDS011;9727;50.200;19.038;2022-07-29T07:41:52;6.32;;;2.53;;
19189;SDS011;9727;50.200;19.038;2022-07-29T07:44:29;4.10;;;2.50;;
19189;SDS011;9727;50.200;19.038;2022-07-29T07:47:01;3.60;;;2.83;;
19189;SDS011;9727;50.200;19.038;2022-07-29T07:49:36;5.90;;;2.92;;
19189;SDS011;9727;50.200;19.038;2022-07-29T07:52:05;4.35;;;2.50;;
19189;SDS011;9727;50.200;19.038;2022-07-29T07:54:32;5.97;;;2.63;;
19189;SDS011;9727;50.200;19.038;2022-07-29T07:56:59;4.82;;;2.80;;
19189;SDS011;9727;50.200;19.038;2022-07-29T07:59:26;7.60;;;2.85;;
19189;SDS011;9727;50.200;19.038;2022-07-29T08:01:53;5.38;;;2.70;;
19189;SDS011;9727;50.200;19.038;2022-07-29T08:04:19;5.00;;;2.90;;
19189;SDS011;9727;50.200;19.038;2022-07-29T08:06:48;6.28;;;3.10;;
19189;SDS011;9727;50.200;19.038;2022-07-29T08:09:15;8.15;;;3.00;;
19189;SDS011;9727;50.200;19.038;2022-07-29T08:11:42;3.95;;;2.63;;
19189;SDS011;9727;50.200;19.038;2022-07-29T08:14:09;6.05;;;3.00;;
19189;SDS011;9727;50.200;19.038;2022-07-29T08:16:36;7.97;;;2.95;;
19189;SDS011;9727;50.200;19.038;2022-07-29T08:19:03;7.70;;;2.70;;
19189;SDS011;9727;50.200;19.038;2022-07-29T08:21:30;4.47;;;2.65;;
19189;SDS011;9727;50.200;19.038;2022-07-29T08:23:58;5.97;;;3.25;;
19189;SDS011;9727;50.200;19.038;2022-07-29T08:26:39;9.02;;;2.90;;
19189;SDS011;9727;50.200;19.038;2022-07-29T08:29:06;6.20;;;3.08;;
19189;SDS011;9727;50.200;19.038;2022-07-29T08:31:32;3.92;;;2.75;;
19189;SDS011;9727;50.200;19.038;2022-07-29T08:33:59;4.13;;;3.08;;
19189;SDS011;9727;50.200;19.038;2022-07-29T08:36:27;5.82;;;2.83;;
19189;SDS011;9727;50.200;19.038;2022-07-29T08:38:54;8.00;;;2.83;;
19189;SDS011;9727;50.200;19.038;2022-07-29T08:41:22;7.07;;;2.95;;
19189;SDS011;9727;50.200;19.038;2022-07-29T08:43:50;5.72;;;2.78;;
19189;SDS011;9727;50.200;19.038;2022-07-29T08:46:17;7.13;;;3.20;;
19189;SDS011;9727;50.200;19.038;2022-07-29T08:48:45;6.93;;;2.83;;
19189;SDS011;9727;50.200;19.038;2022-07-29T08:51:13;4.10;;;2.97;;
19189;SDS011;9727;50.200;19.038;2022-07-29T08:53:54;7.28;;;2.95;;
19189;SDS011;9727;50.200;19.038;2022-07-29T08:56:22;3.90;;;2.50;;
19189;SDS011;9727;50.200;19.038;2022-07-29T08:58:52;5.32;;;3.00;;
19189;SDS011;9727;50.200;19.038;2022-07-29T09:01:27;13.98;;;3.17;;
19189;SDS011;9727;50.200;19.038;2022-07-29T09:03:57;6.53;;;3.20;;
19189;SDS011;9727;50.200;19.038;2022-07-29T09:06:27;6.53;;;3.05;;
19189;SDS011;9727;50.200;19.038;2022-07-29T09:08:59;6.75;;;2.92;;
19189;SDS011;9727;50.200;19.038;2022-07-29T09:11:27;7.72;;;3.20;;
19189;SDS011;9727;50.200;19.038;2022-07-29T09:14:07;3.33;;;3.03;;
19189;SDS011;9727;50.200;19.038;2022-07-29T09:16:50;7.47;;;3.15;;
19189;SDS011;9727;50.200;19.038;2022-07-29T09:19:24;3.05;;;2.70;;
19189;SDS011;9727;50.200;19.038;2022-07-29T09:22:05;8.02;;;3.33;;
19189;SDS011;9727;50.200;19.038;2022-07-29T09:24:38;3.97;;;3.03;;
19189;SDS011;9727;50.200;19.038;2022-07-29T09:30:05;8.25;;;3.40;;
19189;SDS011;9727;50.200;19.038;2022-07-29T09:32:33;6.25;;;3.10;;
19189;SDS011;9727;50.200;19.038;2022-07-29T09:35:16;3.20;;;2.50;;
19189;SDS011;9727;50.200;19.038;2022-07-29T09:37:45;2.97;;;2.60;;
19189;SDS011;9727;50.200;19.038;2022-07-29T09:40:18;4.68;;;2.92;;
19189;SDS011;9727;50.200;19.038;2022-07-29T09:42:46;6.53;;;3.38;;
19189;SDS011;9727;50.200;19.038;2022-07-29T09:45:14;6.72;;;2.88;;
19189;SDS011;9727;50.200;19.038;2022-07-29T09:47:52;5.60;;;2.72;;
19189;SDS011;9727;50.200;19.038;2022-07-29T09:50:35;4.80;;;3.03;;
19189;SDS011;9727;50.200;19.038;2022-07-29T09:53:01;3.88;;;2.90;;
19189;SDS011;9727;50.200;19.038;2022-07-29T09:55:28;5.57;;;3.20;;
19189;SDS011;9727;50.200;19.038;2022-07-29T09:57:55;16.80;;;5.03;;
19189;SDS011;9727;50.200;19.038;2022-07-29T10:00:42;55.90;;;13.27;;
19189;SDS011;9727;50.200;19.038;2022-07-29T10:03:10;25.17;;;9.52;;
19189;SDS011;9727;50.200;19.038;2022-07-29T10:05:37;34.38;;;14.50;;
19189;SDS011;9727;50.200;19.038;2022-07-29T10:08:07;22.38;;;10.15;;
19189;SDS011;9727;50.200;19.038;2022-07-29T10:10:38;56.60;;;22.52;;
19189;SDS011;9727;50.200;19.038;2022-07-29T10:13:06;14.77;;;6.78;;
19189;SDS011;9727;50.200;19.038;2022-07-29T10:15:34;12.15;;;5.40;;
19189;SDS011;9727;50.200;19.038;2022-07-29T10:18:06;9.32;;;4.53;;
19189;SDS011;9727;50.200;19.038;2022-07-29T10:20:36;8.35;;;3.90;;
19189;SDS011;9727;50.200;19.038;2022-07-29T10:23:03;4.30;;;3.28;;
19189;SDS011;9727;50.200;19.038;2022-07-29T10:25:32;11.02;;;5.72;;
19189;SDS011;9727;50.200;19.038;2022-07-29T10:28:00;25.02;;;4.30;;
19189;SDS011;9727;50.200;19.038;2022-07-29T10:30:26;5.53;;;3.17;;
19189;SDS011;9727;50.200;19.038;2022-07-29T10:33:12;3.67;;;2.63;;
19189;SDS011;9727;50.200;19.038;2022-07-29T10:35:44;4.97;;;3.40;;
19189;SDS011;9727;50.200;19.038;2022-07-29T10:41:05;5.80;;;3.47;;
19189;SDS011;9727;50.200;19.038;2022-07-29T10:43:54;5.55;;;3.45;;
19189;SDS011;9727;50.200;19.038;2022-07-29T10:46:21;4.85;;;3.10;;
19189;SDS011;9727;50.200;19.038;2022-07-29T10:49:06;4.20;;;3.22;;
19189;SDS011;9727;50.200;19.038;2022-07-29T10:51:55;7.90;;;2.80;;
19189;SDS011;9727;50.200;19.038;2022-07-29T10:57:14;3.17;;;2.92;;
19189;SDS011;9727;50.200;19.038;2022-07-29T10:59:41;6.70;;;3.00;;
19189;SDS011;9727;50.200;19.038;2022-07-29T11:05:07;4.18;;;3.05;;
19189;SDS011;9727;50.200;19.038;2022-07-29T11:07:36;3.90;;;2.80;;
19189;SDS011;9727;50.200;19.038;2022-07-29T11:10:22;3.67;;;2.90;;
19189;SDS011;9727;50.200;19.038;2022-07-29T11:12:50;5.90;;;3.15;;
19189;SDS011;9727;50.200;19.038;2022-07-29T11:15:18;5.13;;;2.92;;
19189;SDS011;9727;50.200;19.038;2022-07-29T11:18:08;5.85;;;2.95;;
19189;SDS011;9727;50.200;19.038;2022-07-29T11:20:38;4.07;;;2.85;;
19189;SDS011;9727;50.200;19.038;2022-07-29T11:23:23;5.25;;;2.83;;
19189;SDS011;9727;50.200;19.038;2022-07-29T11:28:35;4.55;;;2.88;;
19189;SDS011;9727;50.200;19.038;2022-07-29T11:31:05;3.55;;;2.78;;
19189;SDS011;9727;50.200;19.038;2022-07-29T11:33:36;6.50;;;2.90;;
19189;SDS011;9727;50.200;19.038;2022-07-29T11:36:14;3.60;;;2.78;;
19189;SDS011;9727;50.200;19.038;2022-07-29T11:38:41;3.97;;;2.70;;
19189;SDS011;9727;50.200;19.038;2022-07-29T11:41:23;9.43;;;2.95;;
19189;SDS011;9727;50.200;19.038;2022-07-29T11:43:50;4.13;;;2.83;;
19189;SDS011;9727;50.200;19.038;2022-07-29T11:49:07;5.85;;;3.20;;
19189;SDS011;9727;50.200;19.038;2022-07-29T11:51:40;6.03;;;2.90;;
19189;SDS011;9727;50.200;19.038;2022-07-29T11:54:10;7.30;;;2.80;;
19189;SDS011;9727;50.200;19.038;2022-07-29T11:56:42;6.13;;;3.40;;
19189;SDS011;9727;50.200;19.038;2022-07-29T11:59:12;6.65;;;3.33;;
19189;SDS011;9727;50.200;19.038;2022-07-29T12:01:51;4.82;;;2.80;;
19189;SDS011;9727;50.200;19.038;2022-07-29T12:04:24;4.82;;;2.58;;
19189;SDS011;9727;50.200;19.038;2022-07-29T12:06:54;5.45;;;3.10;;
19189;SDS011;9727;50.200;19.038;2022-07-29T12:09:25;6.47;;;3.05;;
19189;SDS011;9727;50.200;19.038;2022-07-29T12:11:56;3.25;;;2.95;;
19189;SDS011;9727;50.200;19.038;2022-07-29T12:14:30;5.68;;;2.88;;
19189;SDS011;9727;50.200;19.038;2022-07-29T12:17:03;5.63;;;3.15;;
19189;SDS011;9727;50.200;19.038;2022-07-29T12:19:30;5.78;;;2.90;;
19189;SDS011;9727;50.200;19.038;2022-07-29T12:22:10;3.75;;;2.72;;
19189;SDS011;9727;50.200;19.038;2022-07-29T12:24:42;5.00;;;2.92;;
19189;SDS011;9727;50.200;19.038;2022-07-29T12:27:09;7.25;;;2.97;;
19189;SDS011;9727;50.200;19.038;2022-07-29T12:29:36;4.90;;;2.90;;
19189;SDS011;9727;50.200;19.038;2022-07-29T12:32:05;4.53;;;3.22;;
19189;SDS011;9727;50.200;19.038;2022-07-29T12:34:35;5.60;;;2.72;;
19189;SDS011;9727;50.200;19.038;2022-07-29T12:37:02;4.78;;;2.97;;
19189;SDS011;9727;50.200;19.038;2022-07-29T12:39:36;4.38;;;3.08;;
19189;SDS011;9727;50.200;19.038;2022-07-29T12:42:10;12.80;;;2.83;;
19189;SDS011;9727;50.200;19.038;2022-07-29T12:44:46;9.52;;;3.63;;
19189;SDS011;9727;50.200;19.038;2022-07-29T12:47:14;6.25;;;3.28;;
19189;SDS011;9727;50.200;19.038;2022-07-29T12:49:41;3.67;;;2.90;;
19189;SDS011;9727;50.200;19.038;2022-07-29T12:52:24;11.90;;;3.28;;
19189;SDS011;9727;50.200;19.038;2022-07-29T12:54:53;9.63;;;3.00;;
19189;SDS011;9727;50.200;19.038;2022-07-29T12:57:20;5.60;;;3.08;;
19189;SDS011;9727;50.200;19.038;2022-07-29T12:59:58;7.47;;;4.00;;
19189;SDS011;9727;50.200;19.038;2022-07-29T13:02:25;7.80;;;5.10;;
19189;SDS011;9727;50.200;19.038;2022-07-29T13:04:55;10.20;;;3.85;;
19189;SDS011;9727;50.200;19.038;2022-07-29T13:07:26;3.92;;;3.05;;
19189;SDS011;9727;50.200;19.038;2022-07-29T13:10:00;7.30;;;3.85;;
19189;SDS011;9727;50.200;19.038;2022-07-29T13:12:39;5.55;;;3.30;;
19189;SDS011;9727;50.200;19.038;2022-07-29T13:15:13;7.82;;;4.75;;
19189;SDS011;9727;50.200;19.038;2022-07-29T13:17:41;6.07;;;4.05;;
19189;SDS011;9727;50.200;19.038;2022-07-29T13:20:11;5.97;;;4.13;;
19189;SDS011;9727;50.200;19.038;2022-07-29T13:22:39;5.93;;;4.18;;
19189;SDS011;9727;50.200;19.038;2022-07-29T13:25:09;6.18;;;3.95;;
19189;SDS011;9727;50.200;19.038;2022-07-29T13:27:37;10.95;;;3.03;;
19189;SDS011;9727;50.200;19.038;2022-07-29T13:30:06;6.70;;;3.45;;
19189;SDS011;9727;50.200;19.038;2022-07-29T13:32:40;4.75;;;3.03;;
19189;SDS011;9727;50.200;19.038;2022-07-29T13:35:15;4.30;;;3.30;;
19189;SDS011;9727;50.200;19.038;2022-07-29T13:37:43;5.32;;;3.25;;
19189;SDS011;9727;50.200;19.038;2022-07-29T13:40:12;3.55;;;3.10;;
19189;SDS011;9727;50.200;19.038;2022-07-29T13:42:48;4.13;;;3.15;;
19189;SDS011;9727;50.200;19.038;2022-07-29T13:45:17;4.75;;;3.33;;
19189;SDS011;9727;50.200;19.038;2022-07-29T13:47:44;7.63;;;2.90;;
19189;SDS011;9727;50.200;19.038;2022-07-29T13:50:12;4.35;;;3.20;;
19189;SDS011;9727;50.200;19.038;2022-07-29T13:52:39;8.07;;;3.50;;
19189;SDS011;9727;50.200;19.038;2022-07-29T13:55:06;4.55;;;3.13;;
19189;SDS011;9727;50.200;19.038;2022-07-29T13:57:44;4.75;;;2.80;;
19189;SDS011;9727;50.200;19.038;2022-07-29T14:00:11;5.20;;;3.03;;
19189;SDS011;9727;50.200;19.038;2022-07-29T14:02:38;4.97;;;3.40;;
19189;SDS011;9727;50.200;19.038;2022-07-29T14:05:06;7.00;;;3.65;;
19189;SDS011;9727;50.200;19.038;2022-07-29T14:07:33;7.05;;;3.22;;
19189;SDS011;9727;50.200;19.038;2022-07-29T14:10:00;5.85;;;2.97;;
19189;SDS011;9727;50.200;19.038;2022-07-29T14:12:26;6.15;;;2.97;;
19189;SDS011;9727;50.200;19.038;2022-07-29T14:14:56;8.63;;;3.20;;
19189;SDS011;9727;50.200;19.038;2022-07-29T14:17:23;5.75;;;2.97;;
19189;SDS011;9727;50.200;19.038;2022-07-29T14:19:49;5.68;;;3.03;;
19189;SDS011;9727;50.200;19.038;2022-07-29T14:22:16;7.95;;;3.47;;
19189;SDS011;9727;50.200;19.038;2022-07-29T14:24:47;5.90;;;3.40;;
19189;SDS011;9727;50.200;19.038;2022-07-29T14:27:14;8.27;;;3.70;;
19189;SDS011;9727;50.200;19.038;2022-07-29T14:29:42;6.55;;;3.90;;
19189;SDS011;9727;50.200;19.038;2022-07-29T14:32:14;8.02;;;3.28;;
19189;SDS011;9727;50.200;19.038;2022-07-29T14:34:55;8.63;;;3.60;;
19189;SDS011;9727;50.200;19.038;2022-07-29T14:37:25;7.07;;;3.45;;
19189;SDS011;9727;50.200;19.038;2022-07-29T14:39:52;15.98;;;3.85;;
19189;SDS011;9727;50.200;19.038;2022-07-29T14:42:19;8.43;;;3.47;;
19189;SDS011;9727;50.200;19.038;2022-07-29T14:44:55;7.32;;;3.78;;
19189;SDS011;9727;50.200;19.038;2022-07-29T14:47:24;6.13;;;3.58;;
19189;SDS011;9727;50.200;19.038;2022-07-29T14:49:52;6.30;;;3.40;;
19189;SDS011;9727;50.200;19.038;2022-07-29T14:52:21;10.57;;;3.55;;
19189;SDS011;9727;50.200;19.038;2022-07-29T14:54:49;15.73;;;3.13;;
19189;SDS011;9727;50.200;19.038;2022-07-29T14:57:26;7.57;;;3.55;;
19189;SDS011;9727;50.200;19.038;2022-07-29T14:59:56;7.97;;;3.35;;
19189;SDS011;9727;50.200;19.038;2022-07-29T15:02:25;5.00;;;2.70;;
19189;SDS011;9727;50.200;19.038;2022-07-29T15:04:54;6.97;;;3.85;;
19189;SDS011;9727;50.200;19.038;2022-07-29T15:07:22;10.43;;;3.10;;
19189;SDS011;9727;50.200;19.038;2022-07-29T15:09:52;9.38;;;3.13;;
19189;SDS011;9727;50.200;19.038;2022-07-29T15:12:23;5.35;;;3.03;;
19189;SDS011;9727;50.200;19.038;2022-07-29T15:14:53;6.35;;;2.88;;
19189;SDS011;9727;50.200;19.038;2022-07-29T15:17:21;11.95;;;3.60;;
19189;SDS011;9727;50.200;19.038;2022-07-29T15:19:51;5.03;;;2.78;;
19189;SDS011;9727;50.200;19.038;2022-07-29T15:22:18;4.80;;;2.88;;
19189;SDS011;9727;50.200;19.038;2022-07-29T15:24:45;6.38;;;3.47;;